Woudenberg, Netherlands
Current Conditions -  °F | °C
As of 12:55 AM on Sunday 23 Nov 2014 (Local Time) from EHDL Reporting Station
Haze Haze  
Wind Chill: 46°   Ceiling: 17000
Heat Index: 48°   Visibility: 5mi
Dew Point: 45°   Wind: 5mph
Humidity: 87%   Direction: 140°SE
Pressure: 30.03"   Gusts: NA
Location:  52.08°N, 5.42°E
Report Text: EHDL 222355Z AUTO 14004KT 8000 BR SCT110 OVC170 09/07 Q1017 BLU
Loading
Personal Weather Stations






























Interactive Weather Map New forecast layout! Learn more

10-Day Weather Forecast

Advertisements
Track Severe Weather on mobile